sensor_id;sensor_type;location;lat;lon;timestamp;temperature;humidity
20446;DHT22;10382;49.140;9.234;2023-08-21T00:00:11;25.60;99.90
20446;DHT22;10382;49.140;9.234;2023-08-21T00:02:38;25.60;99.90
20446;DHT22;10382;49.140;9.234;2023-08-21T00:05:06;25.60;99.90
20446;DHT22;10382;49.140;9.234;2023-08-21T00:07:33;25.60;99.90
20446;DHT22;10382;49.140;9.234;2023-08-21T00:10:01;25.60;99.90
20446;DHT22;10382;49.140;9.234;2023-08-21T00:12:28;25.60;99.90
20446;DHT22;10382;49.140;9.234;2023-08-21T00:14:54;25.60;99.90
20446;DHT22;10382;49.140;9.234;2023-08-21T00:17:21;25.60;99.90
20446;DHT22;10382;49.140;9.234;2023-08-21T00:19:48;25.60;99.90
20446;DHT22;10382;49.140;9.234;2023-08-21T00:22:15;25.50;99.90
20446;DHT22;10382;49.140;9.234;2023-08-21T00:24:42;25.40;99.90
20446;DHT22;10382;49.140;9.234;2023-08-21T00:27:10;25.40;99.90
20446;DHT22;10382;49.140;9.234;2023-08-21T00:29:37;25.40;99.90
20446;DHT22;10382;49.140;9.234;2023-08-21T00:32:04;25.50;99.90
20446;DHT22;10382;49.140;9.234;2023-08-21T00:34:32;25.50;99.90
20446;DHT22;10382;49.140;9.234;2023-08-21T00:36:59;25.50;99.90
20446;DHT22;10382;49.140;9.234;2023-08-21T00:39:26;25.40;99.90
20446;DHT22;10382;49.140;9.234;2023-08-21T00:41:53;25.40;99.90
20446;DHT22;10382;49.140;9.234;2023-08-21T00:44:21;25.40;99.90
20446;DHT22;10382;49.140;9.234;2023-08-21T00:46:48;25.40;99.90
20446;DHT22;10382;49.140;9.234;2023-08-21T00:49:15;25.40;99.90
20446;DHT22;10382;49.140;9.234;2023-08-21T00:51:42;25.30;99.90
20446;DHT22;10382;49.140;9.234;2023-08-21T00:54:09;25.30;99.90
20446;DHT22;10382;49.140;9.234;2023-08-21T00:56:36;25.20;99.90
20446;DHT22;10382;49.140;9.234;2023-08-21T00:59:03;25.10;99.90
20446;DHT22;10382;49.140;9.234;2023-08-21T01:01:32;24.90;99.90
20446;DHT22;10382;49.140;9.234;2023-08-21T01:03:59;24.70;99.90
20446;DHT22;10382;49.140;9.234;2023-08-21T01:06:26;24.50;99.90
20446;DHT22;10382;49.140;9.234;2023-08-21T01:08:57;24.50;99.90
20446;DHT22;10382;49.140;9.234;2023-08-21T01:11:33;24.70;99.90
20446;DHT22;10382;49.140;9.234;2023-08-21T01:14:08;24.70;99.90
20446;DHT22;10382;49.140;9.234;2023-08-21T01:16:37;24.80;99.90
20446;DHT22;10382;49.140;9.234;2023-08-21T01:19:10;24.80;99.90
20446;DHT22;10382;49.140;9.234;2023-08-21T01:21:41;24.80;99.90
20446;DHT22;10382;49.140;9.234;2023-08-21T01:24:09;24.80;99.90
20446;DHT22;10382;49.140;9.234;2023-08-21T01:26:36;24.70;99.90
20446;DHT22;10382;49.140;9.234;2023-08-21T01:29:03;24.80;99.90
20446;DHT22;10382;49.140;9.234;2023-08-21T01:31:32;24.80;99.90
20446;DHT22;10382;49.140;9.234;2023-08-21T01:34:04;24.80;99.90
20446;DHT22;10382;49.140;9.234;2023-08-21T01:36:31;24.70;99.90
20446;DHT22;10382;49.140;9.234;2023-08-21T01:38:59;24.70;99.90
20446;DHT22;10382;49.140;9.234;2023-08-21T01:41:27;24.50;99.90
20446;DHT22;10382;49.140;9.234;2023-08-21T01:43:54;24.50;99.90
20446;DHT22;10382;49.140;9.234;2023-08-21T01:46:21;24.60;99.90
20446;DHT22;10382;49.140;9.234;2023-08-21T01:48:48;24.70;99.90
20446;DHT22;10382;49.140;9.234;2023-08-21T01:51:15;24.70;99.90
20446;DHT22;10382;49.140;9.234;2023-08-21T01:53:42;24.60;99.90
20446;DHT22;10382;49.140;9.234;2023-08-21T01:56:09;24.60;99.90
20446;DHT22;10382;49.140;9.234;2023-08-21T01:58:37;24.70;99.90
20446;DHT22;10382;49.140;9.234;2023-08-21T02:01:04;24.70;99.90
20446;DHT22;10382;49.140;9.234;2023-08-21T02:03:31;24.60;99.90
20446;DHT22;10382;49.140;9.234;2023-08-21T02:05:58;24.50;99.90
20446;DHT22;10382;49.140;9.234;2023-08-21T02:08:30;24.50;99.90
20446;DHT22;10382;49.140;9.234;2023-08-21T02:10:58;24.50;99.90
20446;DHT22;10382;49.140;9.234;2023-08-21T02:13:25;24.50;99.90
20446;DHT22;10382;49.140;9.234;2023-08-21T02:15:53;24.50;99.90
20446;DHT22;10382;49.140;9.234;2023-08-21T02:18:20;24.50;99.90
20446;DHT22;10382;49.140;9.234;2023-08-21T02:20:47;24.40;99.90
20446;DHT22;10382;49.140;9.234;2023-08-21T02:23:15;24.30;99.90
20446;DHT22;10382;49.140;9.234;2023-08-21T02:25:42;24.30;99.90
20446;DHT22;10382;49.140;9.234;2023-08-21T02:28:09;24.20;99.90
20446;DHT22;10382;49.140;9.234;2023-08-21T02:30:36;24.20;99.90
20446;DHT22;10382;49.140;9.234;2023-08-21T02:33:08;24.10;99.90
20446;DHT22;10382;49.140;9.234;2023-08-21T02:35:35;24.10;99.90
20446;DHT22;10382;49.140;9.234;2023-08-21T02:38:02;24.10;99.90
20446;DHT22;10382;49.140;9.234;2023-08-21T02:40:29;24.10;99.90
20446;DHT22;10382;49.140;9.234;2023-08-21T02:42:57;24.10;99.90
20446;DHT22;10382;49.140;9.234;2023-08-21T02:45:23;24.10;99.90
20446;DHT22;10382;49.140;9.234;2023-08-21T02:47:50;24.10;99.90
20446;DHT22;10382;49.140;9.234;2023-08-21T02:50:19;24.10;99.90
20446;DHT22;10382;49.140;9.234;2023-08-21T02:52:46;24.10;99.90
20446;DHT22;10382;49.140;9.234;2023-08-21T02:55:13;24.10;99.90
20446;DHT22;10382;49.140;9.234;2023-08-21T02:57:41;24.00;99.90
20446;DHT22;10382;49.140;9.234;2023-08-21T03:00:08;23.80;99.90
20446;DHT22;10382;49.140;9.234;2023-08-21T03:02:37;23.70;99.90
20446;DHT22;10382;49.140;9.234;2023-08-21T03:05:08;23.60;99.90
20446;DHT22;10382;49.140;9.234;2023-08-21T03:07:37;23.70;99.90
20446;DHT22;10382;49.140;9.234;2023-08-21T03:10:05;23.70;99.90
20446;DHT22;10382;49.140;9.234;2023-08-21T03:12:32;23.70;99.90
20446;DHT22;10382;49.140;9.234;2023-08-21T03:14:59;23.80;99.90
20446;DHT22;10382;49.140;9.234;2023-08-21T03:17:26;23.90;99.90
20446;DHT22;10382;49.140;9.234;2023-08-21T03:19:52;24.00;99.90
20446;DHT22;10382;49.140;9.234;2023-08-21T03:22:19;24.00;99.90
20446;DHT22;10382;49.140;9.234;2023-08-21T03:24:47;23.90;99.90
20446;DHT22;10382;49.140;9.234;2023-08-21T03:27:15;24.00;99.90
20446;DHT22;10382;49.140;9.234;2023-08-21T03:29:42;24.00;99.90
20446;DHT22;10382;49.140;9.234;2023-08-21T03:32:14;24.00;99.90
20446;DHT22;10382;49.140;9.234;2023-08-21T03:34:41;24.00;99.90
20446;DHT22;10382;49.140;9.234;2023-08-21T03:37:08;23.90;99.90
20446;DHT22;10382;49.140;9.234;2023-08-21T03:39:35;23.80;99.90
20446;DHT22;10382;49.140;9.234;2023-08-21T03:42:03;23.70;99.90
20446;DHT22;10382;49.140;9.234;2023-08-21T03:44:30;23.60;99.90
20446;DHT22;10382;49.140;9.234;2023-08-21T03:46:57;23.60;99.90
20446;DHT22;10382;49.140;9.234;2023-08-21T03:49:24;23.50;99.90
20446;DHT22;10382;49.140;9.234;2023-08-21T03:51:51;23.40;99.90
20446;DHT22;10382;49.140;9.234;2023-08-21T03:54:18;23.40;99.90
20446;DHT22;10382;49.140;9.234;2023-08-21T03:56:44;23.40;99.90
20446;DHT22;10382;49.140;9.234;2023-08-21T03:59:13;23.50;99.90
20446;DHT22;10382;49.140;9.234;2023-08-21T04:01:39;23.60;99.90
20446;DHT22;10382;49.140;9.234;2023-08-21T04:04:06;23.60;99.90
20446;DHT22;10382;49.140;9.234;2023-08-21T04:06:33;23.60;99.90
20446;DHT22;10382;49.140;9.234;2023-08-21T04:09:00;23.50;99.90
20446;DHT22;10382;49.140;9.234;2023-08-21T04:11:27;23.50;99.90
20446;DHT22;10382;49.140;9.234;2023-08-21T04:13:54;23.50;99.90
20446;DHT22;10382;49.140;9.234;2023-08-21T04:16:23;23.50;99.90
20446;DHT22;10382;49.140;9.234;2023-08-21T04:18:49;23.60;99.90
20446;DHT22;10382;49.140;9.234;2023-08-21T04:21:16;23.60;99.90
20446;DHT22;10382;49.140;9.234;2023-08-21T04:23:44;23.80;99.90
20446;DHT22;10382;49.140;9.234;2023-08-21T04:26:11;23.80;99.90
20446;DHT22;10382;49.140;9.234;2023-08-21T04:28:38;23.80;99.90
20446;DHT22;10382;49.140;9.234;2023-08-21T04:31:05;23.80;99.90
20446;DHT22;10382;49.140;9.234;2023-08-21T04:33:33;23.80;99.90
20446;DHT22;10382;49.140;9.234;2023-08-21T04:36:00;23.80;99.90
20446;DHT22;10382;49.140;9.234;2023-08-21T04:38:27;23.80;99.90
20446;DHT22;10382;49.140;9.234;2023-08-21T04:40:54;23.80;99.90
20446;DHT22;10382;49.140;9.234;2023-08-21T04:43:21;23.70;99.90
20446;DHT22;10382;49.140;9.234;2023-08-21T04:45:48;23.50;99.90
20446;DHT22;10382;49.140;9.234;2023-08-21T04:48:16;23.50;99.90
20446;DHT22;10382;49.140;9.234;2023-08-21T04:50:45;23.30;99.90
20446;DHT22;10382;49.140;9.234;2023-08-21T04:53:12;23.20;99.90
20446;DHT22;10382;49.140;9.234;2023-08-21T04:55:39;23.20;99.90
20446;DHT22;10382;49.140;9.234;2023-08-21T04:58:07;23.10;99.90
20446;DHT22;10382;49.140;9.234;2023-08-21T05:00:34;23.10;99.90
20446;DHT22;10382;49.140;9.234;2023-08-21T05:03:01;23.20;99.90
20446;DHT22;10382;49.140;9.234;2023-08-21T05:05:28;23.20;99.90
20446;DHT22;10382;49.140;9.234;2023-08-21T05:07:56;23.20;99.90
20446;DHT22;10382;49.140;9.234;2023-08-21T05:10:23;23.30;99.90
20446;DHT22;10382;49.140;9.234;2023-08-21T05:12:50;23.30;99.90
20446;DHT22;10382;49.140;9.234;2023-08-21T05:15:17;23.40;99.90
20446;DHT22;10382;49.140;9.234;2023-08-21T05:17:43;23.40;99.90
20446;DHT22;10382;49.140;9.234;2023-08-21T05:20:11;23.50;99.90
20446;DHT22;10382;49.140;9.234;2023-08-21T05:22:40;23.60;99.90
20446;DHT22;10382;49.140;9.234;2023-08-21T05:25:09;23.70;99.90
20446;DHT22;10382;49.140;9.234;2023-08-21T05:27:36;23.90;99.90
20446;DHT22;10382;49.140;9.234;2023-08-21T05:30:04;24.10;99.90
20446;DHT22;10382;49.140;9.234;2023-08-21T05:32:31;24.30;99.90
20446;DHT22;10382;49.140;9.234;2023-08-21T05:34:58;24.40;99.90
20446;DHT22;10382;49.140;9.234;2023-08-21T05:37:24;24.60;99.90
20446;DHT22;10382;49.140;9.234;2023-08-21T05:39:52;24.80;99.90
20446;DHT22;10382;49.140;9.234;2023-08-21T05:42:20;25.00;99.90
20446;DHT22;10382;49.140;9.234;2023-08-21T05:44:47;25.10;99.90
20446;DHT22;10382;49.140;9.234;2023-08-21T05:47:14;25.20;99.90
20446;DHT22;10382;49.140;9.234;2023-08-21T05:49:41;25.40;99.90
20446;DHT22;10382;49.140;9.234;2023-08-21T05:52:09;25.60;99.90
20446;DHT22;10382;49.140;9.234;2023-08-21T05:54:35;25.80;99.90
20446;DHT22;10382;49.140;9.234;2023-08-21T05:57:03;25.90;99.90
20446;DHT22;10382;49.140;9.234;2023-08-21T05:59:32;26.10;99.90
20446;DHT22;10382;49.140;9.234;2023-08-21T06:01:59;26.20;99.90
20446;DHT22;10382;49.140;9.234;2023-08-21T06:04:26;26.30;99.90
20446;DHT22;10382;49.140;9.234;2023-08-21T06:06:53;26.40;99.90
20446;DHT22;10382;49.140;9.234;2023-08-21T06:09:20;26.50;99.90
20446;DHT22;10382;49.140;9.234;2023-08-21T06:11:47;26.60;99.90
20446;DHT22;10382;49.140;9.234;2023-08-21T06:14:14;26.70;99.90
20446;DHT22;10382;49.140;9.234;2023-08-21T06:16:42;26.90;99.90
20446;DHT22;10382;49.140;9.234;2023-08-21T06:19:10;27.20;99.90
20446;DHT22;10382;49.140;9.234;2023-08-21T06:21:37;27.50;99.90
20446;DHT22;10382;49.140;9.234;2023-08-21T06:24:04;27.80;99.90
20446;DHT22;10382;49.140;9.234;2023-08-21T06:26:31;28.10;99.90
20446;DHT22;10382;49.140;9.234;2023-08-21T06:28:58;28.40;99.90
20446;DHT22;10382;49.140;9.234;2023-08-21T06:31:25;28.70;99.90
20446;DHT22;10382;49.140;9.234;2023-08-21T06:33:53;29.10;99.90
20446;DHT22;10382;49.140;9.234;2023-08-21T06:36:20;29.50;99.90
20446;DHT22;10382;49.140;9.234;2023-08-21T06:38:46;29.80;99.90
20446;DHT22;10382;49.140;9.234;2023-08-21T06:41:13;30.20;99.90
20446;DHT22;10382;49.140;9.234;2023-08-21T06:43:40;30.50;99.90
20446;DHT22;10382;49.140;9.234;2023-08-21T06:46:08;30.80;99.90
20446;DHT22;10382;49.140;9.234;2023-08-21T06:48:37;31.10;99.90
20446;DHT22;10382;49.140;9.234;2023-08-21T06:51:05;31.30;99.90
20446;DHT22;10382;49.140;9.234;2023-08-21T06:53:32;31.50;99.90
20446;DHT22;10382;49.140;9.234;2023-08-21T06:55:59;31.80;99.90
20446;DHT22;10382;49.140;9.234;2023-08-21T06:58:26;32.10;99.90
20446;DHT22;10382;49.140;9.234;2023-08-21T07:00:53;32.30;99.90
20446;DHT22;10382;49.140;9.234;2023-08-21T07:03:20;32.60;99.90
20446;DHT22;10382;49.140;9.234;2023-08-21T07:05:53;32.80;99.90
20446;DHT22;10382;49.140;9.234;2023-08-21T07:08:23;32.90;99.90
20446;DHT22;10382;49.140;9.234;2023-08-21T07:10:50;33.10;99.90
20446;DHT22;10382;49.140;9.234;2023-08-21T07:13:17;33.30;99.90
20446;DHT22;10382;49.140;9.234;2023-08-21T07:15:44;33.50;99.90
20446;DHT22;10382;49.140;9.234;2023-08-21T07:18:11;33.70;99.90
20446;DHT22;10382;49.140;9.234;2023-08-21T07:20:38;33.80;99.90
20446;DHT22;10382;49.140;9.234;2023-08-21T07:23:05;34.00;99.90
20446;DHT22;10382;49.140;9.234;2023-08-21T07:25:33;34.20;99.90
20446;DHT22;10382;49.140;9.234;2023-08-21T07:28:00;34.20;99.90
20446;DHT22;10382;49.140;9.234;2023-08-21T07:30:27;34.30;99.90
20446;DHT22;10382;49.140;9.234;2023-08-21T07:32:54;34.60;99.90
20446;DHT22;10382;49.140;9.234;2023-08-21T07:35:21;34.90;99.90
20446;DHT22;10382;49.140;9.234;2023-08-21T07:37:48;35.20;99.90
20446;DHT22;10382;49.140;9.234;2023-08-21T07:40:14;35.50;99.90
20446;DHT22;10382;49.140;9.234;2023-08-21T07:42:43;35.80;99.90
20446;DHT22;10382;49.140;9.234;2023-08-21T07:45:10;36.10;99.90
20446;DHT22;10382;49.140;9.234;2023-08-21T07:47:37;36.20;99.90
20446;DHT22;10382;49.140;9.234;2023-08-21T07:50:05;36.50;99.90
20446;DHT22;10382;49.140;9.234;2023-08-21T07:52:32;36.80;99.90
20446;DHT22;10382;49.140;9.234;2023-08-21T07:54:59;36.80;99.90
20446;DHT22;10382;49.140;9.234;2023-08-21T07:57:26;36.70;99.90
20446;DHT22;10382;49.140;9.234;2023-08-21T07:59:54;36.60;99.90
20446;DHT22;10382;49.140;9.234;2023-08-21T08:02:22;36.60;99.90
20446;DHT22;10382;49.140;9.234;2023-08-21T08:04:49;36.40;99.90
20446;DHT22;10382;49.140;9.234;2023-08-21T08:07:16;36.30;99.90
20446;DHT22;10382;49.140;9.234;2023-08-21T08:09:43;36.00;99.90
20446;DHT22;10382;49.140;9.234;2023-08-21T08:12:10;35.80;99.90
20446;DHT22;10382;49.140;9.234;2023-08-21T08:14:37;35.60;99.90
20446;DHT22;10382;49.140;9.234;2023-08-21T08:17:06;35.50;99.90
20446;DHT22;10382;49.140;9.234;2023-08-21T08:19:32;35.30;99.90
20446;DHT22;10382;49.140;9.234;2023-08-21T08:21:59;35.20;99.90
20446;DHT22;10382;49.140;9.234;2023-08-21T08:24:26;35.00;99.90
20446;DHT22;10382;49.140;9.234;2023-08-21T08:26:53;34.90;99.90
20446;DHT22;10382;49.140;9.234;2023-08-21T08:29:20;34.70;99.90
20446;DHT22;10382;49.140;9.234;2023-08-21T08:31:47;34.40;99.90
20446;DHT22;10382;49.140;9.234;2023-08-21T08:34:15;34.10;99.90
20446;DHT22;10382;49.140;9.234;2023-08-21T08:36:43;34.10;99.90
20446;DHT22;10382;49.140;9.234;2023-08-21T08:39:10;33.60;99.90
20446;DHT22;10382;49.140;9.234;2023-08-21T08:41:43;33.30;99.90
20446;DHT22;10382;49.140;9.234;2023-08-21T08:44:13;33.20;99.90
20446;DHT22;10382;49.140;9.234;2023-08-21T08:46:43;33.20;99.90
20446;DHT22;10382;49.140;9.234;2023-08-21T08:49:09;33.40;99.90
20446;DHT22;10382;49.140;9.234;2023-08-21T08:51:39;33.50;99.90
20446;DHT22;10382;49.140;9.234;2023-08-21T08:54:09;33.60;99.90
20446;DHT22;10382;49.140;9.234;2023-08-21T08:56:37;33.80;99.90
20446;DHT22;10382;49.140;9.234;2023-08-21T08:59:07;34.10;99.90
20446;DHT22;10382;49.140;9.234;2023-08-21T09:01:34;34.20;99.90
20446;DHT22;10382;49.140;9.234;2023-08-21T09:04:01;34.40;99.90
20446;DHT22;10382;49.140;9.234;2023-08-21T09:06:29;34.70;99.90
20446;DHT22;10382;49.140;9.234;2023-08-21T09:08:57;34.90;99.90
20446;DHT22;10382;49.140;9.234;2023-08-21T09:11:24;35.10;99.90
20446;DHT22;10382;49.140;9.234;2023-08-21T09:13:53;35.30;99.90
20446;DHT22;10382;49.140;9.234;2023-08-21T09:16:20;35.40;99.90
20446;DHT22;10382;49.140;9.234;2023-08-21T09:18:47;35.60;99.90
20446;DHT22;10382;49.140;9.234;2023-08-21T09:21:18;35.80;99.90
20446;DHT22;10382;49.140;9.234;2023-08-21T09:23:45;36.00;99.90
20446;DHT22;10382;49.140;9.234;2023-08-21T09:26:19;36.20;99.90
20446;DHT22;10382;49.140;9.234;2023-08-21T09:28:47;36.30;99.90
20446;DHT22;10382;49.140;9.234;2023-08-21T09:31:14;36.50;99.90
20446;DHT22;10382;49.140;9.234;2023-08-21T09:33:41;37.20;99.90
20446;DHT22;10382;49.140;9.234;2023-08-21T09:36:09;38.30;99.90
20446;DHT22;10382;49.140;9.234;2023-08-21T09:38:38;39.00;98.10
20446;DHT22;10382;49.140;9.234;2023-08-21T09:41:06;39.20;96.50
20446;DHT22;10382;49.140;9.234;2023-08-21T09:43:41;39.10;96.20
20446;DHT22;10382;49.140;9.234;2023-08-21T09:46:08;38.70;95.40
20446;DHT22;10382;49.140;9.234;2023-08-21T09:48:35;38.40;95.30
20446;DHT22;10382;49.140;9.234;2023-08-21T09:51:03;38.20;95.50
20446;DHT22;10382;49.140;9.234;2023-08-21T09:53:30;38.20;93.60
20446;DHT22;10382;49.140;9.234;2023-08-21T09:55:59;38.10;92.90
20446;DHT22;10382;49.140;9.234;2023-08-21T09:58:28;38.00;92.10
20446;DHT22;10382;49.140;9.234;2023-08-21T10:00:58;38.00;91.30
20446;DHT22;10382;49.140;9.234;2023-08-21T10:03:26;38.10;89.90
20446;DHT22;10382;49.140;9.234;2023-08-21T10:05:56;38.20;89.90
20446;DHT22;10382;49.140;9.234;2023-08-21T10:08:25;38.10;84.00
20446;DHT22;10382;49.140;9.234;2023-08-21T10:10:52;37.90;82.80
20446;DHT22;10382;49.140;9.234;2023-08-21T10:13:19;37.60;86.50
20446;DHT22;10382;49.140;9.234;2023-08-21T10:15:46;37.60;85.90
20446;DHT22;10382;49.140;9.234;2023-08-21T10:18:23;37.50;89.10
20446;DHT22;10382;49.140;9.234;2023-08-21T10:20:50;37.60;90.00
20446;DHT22;10382;49.140;9.234;2023-08-21T10:23:25;37.80;87.20
20446;DHT22;10382;49.140;9.234;2023-08-21T10:25:56;37.90;84.80
20446;DHT22;10382;49.140;9.234;2023-08-21T10:28:23;38.00;84.60
20446;DHT22;10382;49.140;9.234;2023-08-21T10:30:50;38.00;81.20
20446;DHT22;10382;49.140;9.234;2023-08-21T10:33:17;37.90;81.80
20446;DHT22;10382;49.140;9.234;2023-08-21T10:35:46;38.00;83.90
20446;DHT22;10382;49.140;9.234;2023-08-21T10:38:15;38.20;85.10
20446;DHT22;10382;49.140;9.234;2023-08-21T10:41:04;38.40;83.30
20446;DHT22;10382;49.140;9.234;2023-08-21T10:43:38;38.70;81.20
20446;DHT22;10382;49.140;9.234;2023-08-21T10:46:05;38.90;79.70
20446;DHT22;10382;49.140;9.234;2023-08-21T10:48:32;38.90;78.70
20446;DHT22;10382;49.140;9.234;2023-08-21T10:51:02;39.00;76.80
20446;DHT22;10382;49.140;9.234;2023-08-21T10:53:30;38.80;77.50
20446;DHT22;10382;49.140;9.234;2023-08-21T10:56:01;38.80;78.80
20446;DHT22;10382;49.140;9.234;2023-08-21T10:58:28;38.70;77.60
20446;DHT22;10382;49.140;9.234;2023-08-21T11:00:58;38.50;77.80
20446;DHT22;10382;49.140;9.234;2023-08-21T11:03:25;38.50;79.20
20446;DHT22;10382;49.140;9.234;2023-08-21T11:06:04;38.60;78.60
20446;DHT22;10382;49.140;9.234;2023-08-21T11:08:31;38.80;76.50
20446;DHT22;10382;49.140;9.234;2023-08-21T11:10:59;38.70;76.00
20446;DHT22;10382;49.140;9.234;2023-08-21T11:13:26;38.60;76.80
20446;DHT22;10382;49.140;9.234;2023-08-21T11:15:59;38.50;75.70
20446;DHT22;10382;49.140;9.234;2023-08-21T11:18:30;38.40;75.40
20446;DHT22;10382;49.140;9.234;2023-08-21T11:21:05;38.40;75.60
20446;DHT22;10382;49.140;9.234;2023-08-21T11:23:34;38.30;75.80
20446;DHT22;10382;49.140;9.234;2023-08-21T11:26:02;38.50;75.80
20446;DHT22;10382;49.140;9.234;2023-08-21T11:28:30;38.70;77.60
20446;DHT22;10382;49.140;9.234;2023-08-21T11:30:57;38.80;73.30
20446;DHT22;10382;49.140;9.234;2023-08-21T11:33:25;38.50;74.90
20446;DHT22;10382;49.140;9.234;2023-08-21T11:35:52;38.50;77.70
20446;DHT22;10382;49.140;9.234;2023-08-21T11:38:22;38.70;75.30
20446;DHT22;10382;49.140;9.234;2023-08-21T11:40:53;38.90;77.10
20446;DHT22;10382;49.140;9.234;2023-08-21T11:43:20;39.10;73.40
20446;DHT22;10382;49.140;9.234;2023-08-21T11:45:47;39.30;72.00
20446;DHT22;10382;49.140;9.234;2023-08-21T11:48:14;39.20;72.40
20446;DHT22;10382;49.140;9.234;2023-08-21T11:50:41;39.20;73.80
20446;DHT22;10382;49.140;9.234;2023-08-21T11:53:08;39.30;73.90
20446;DHT22;10382;49.140;9.234;2023-08-21T11:55:38;39.50;73.70
20446;DHT22;10382;49.140;9.234;2023-08-21T11:58:06;39.70;72.90
20446;DHT22;10382;49.140;9.234;2023-08-21T12:00:33;39.50;71.80
20446;DHT22;10382;49.140;9.234;2023-08-21T12:03:00;38.80;73.30
20446;DHT22;10382;49.140;9.234;2023-08-21T12:05:28;38.70;73.40
20446;DHT22;10382;49.140;9.234;2023-08-21T12:07:55;38.80;73.50
20446;DHT22;10382;49.140;9.234;2023-08-21T12:10:23;39.10;73.00
20446;DHT22;10382;49.140;9.234;2023-08-21T12:12:51;39.50;71.80
20446;DHT22;10382;49.140;9.234;2023-08-21T12:15:18;39.80;71.20
20446;DHT22;10382;49.140;9.234;2023-08-21T12:17:45;40.20;68.90
20446;DHT22;10382;49.140;9.234;2023-08-21T12:20:12;40.40;67.60
20446;DHT22;10382;49.140;9.234;2023-08-21T12:22:40;40.60;67.70
20446;DHT22;10382;49.140;9.234;2023-08-21T12:25:08;40.80;66.40
20446;DHT22;10382;49.140;9.234;2023-08-21T12:27:35;40.90;67.50
20446;DHT22;10382;49.140;9.234;2023-08-21T12:30:04;41.00;65.90
20446;DHT22;10382;49.140;9.234;2023-08-21T12:32:31;41.10;64.80
20446;DHT22;10382;49.140;9.234;2023-08-21T12:34:58;41.30;62.30
20446;DHT22;10382;49.140;9.234;2023-08-21T12:37:25;41.20;62.20
20446;DHT22;10382;49.140;9.234;2023-08-21T12:39:53;40.60;62.10
20446;DHT22;10382;49.140;9.234;2023-08-21T12:42:19;39.80;63.90
20446;DHT22;10382;49.140;9.234;2023-08-21T12:44:46;39.50;65.60
20446;DHT22;10382;49.140;9.234;2023-08-21T12:47:14;39.30;67.10
20446;DHT22;10382;49.140;9.234;2023-08-21T12:49:41;39.30;66.30
20446;DHT22;10382;49.140;9.234;2023-08-21T12:52:07;39.60;66.20
20446;DHT22;10382;49.140;9.234;2023-08-21T12:54:34;39.80;65.90
20446;DHT22;10382;49.140;9.234;2023-08-21T12:57:01;40.00;65.30
20446;DHT22;10382;49.140;9.234;2023-08-21T12:59:28;40.20;65.60
20446;DHT22;10382;49.140;9.234;2023-08-21T13:01:55;40.50;65.50
20446;DHT22;10382;49.140;9.234;2023-08-21T13:04:23;40.70;64.00
20446;DHT22;10382;49.140;9.234;2023-08-21T13:06:50;40.80;63.10
20446;DHT22;10382;49.140;9.234;2023-08-21T13:09:16;41.00;63.30
20446;DHT22;10382;49.140;9.234;2023-08-21T13:11:43;41.10;63.20
20446;DHT22;10382;49.140;9.234;2023-08-21T13:14:10;41.00;62.70
20446;DHT22;10382;49.140;9.234;2023-08-21T13:16:37;40.80;63.30
20446;DHT22;10382;49.140;9.234;2023-08-21T13:19:04;40.70;61.20
20446;DHT22;10382;49.140;9.234;2023-08-21T13:21:32;40.20;61.60
20446;DHT22;10382;49.140;9.234;2023-08-21T13:23:59;40.10;63.70
20446;DHT22;10382;49.140;9.234;2023-08-21T13:26:25;39.90;63.80
20446;DHT22;10382;49.140;9.234;2023-08-21T13:28:55;39.70;64.70
20446;DHT22;10382;49.140;9.234;2023-08-21T13:31:22;39.60;65.20
20446;DHT22;10382;49.140;9.234;2023-08-21T13:33:50;39.60;64.50
20446;DHT22;10382;49.140;9.234;2023-08-21T13:36:19;39.40;64.60
20446;DHT22;10382;49.140;9.234;2023-08-21T13:38:48;39.20;65.30
20446;DHT22;10382;49.140;9.234;2023-08-21T13:41:15;39.00;65.90
20446;DHT22;10382;49.140;9.234;2023-08-21T13:43:42;39.00;65.50
20446;DHT22;10382;49.140;9.234;2023-08-21T13:46:08;39.00;65.00
20446;DHT22;10382;49.140;9.234;2023-08-21T13:48:35;39.00;65.80
20446;DHT22;10382;49.140;9.234;2023-08-21T13:51:02;39.10;65.80
20446;DHT22;10382;49.140;9.234;2023-08-21T13:53:29;39.40;65.80
20446;DHT22;10382;49.140;9.234;2023-08-21T13:55:57;39.60;64.50
20446;DHT22;10382;49.140;9.234;2023-08-21T13:58:24;39.70;65.60
20446;DHT22;10382;49.140;9.234;2023-08-21T14:00:51;39.80;64.90
20446;DHT22;10382;49.140;9.234;2023-08-21T14:03:18;39.70;66.30
20446;DHT22;10382;49.140;9.234;2023-08-21T14:05:44;39.40;63.20
20446;DHT22;10382;49.140;9.234;2023-08-21T14:08:11;39.20;64.70
20446;DHT22;10382;49.140;9.234;2023-08-21T14:10:38;39.20;65.50
20446;DHT22;10382;49.140;9.234;2023-08-21T14:13:06;39.10;64.80
20446;DHT22;10382;49.140;9.234;2023-08-21T14:15:34;39.10;64.50
20446;DHT22;10382;49.140;9.234;2023-08-21T14:18:01;39.10;64.90
20446;DHT22;10382;49.140;9.234;2023-08-21T14:20:28;39.30;64.90
20446;DHT22;10382;49.140;9.234;2023-08-21T14:22:55;39.50;65.90
20446;DHT22;10382;49.140;9.234;2023-08-21T14:25:22;39.60;65.50
20446;DHT22;10382;49.140;9.234;2023-08-21T14:27:49;39.70;65.80
20446;DHT22;10382;49.140;9.234;2023-08-21T14:30:17;39.80;65.40
20446;DHT22;10382;49.140;9.234;2023-08-21T14:32:44;39.90;65.30
20446;DHT22;10382;49.140;9.234;2023-08-21T14:35:11;40.10;64.60
20446;DHT22;10382;49.140;9.234;2023-08-21T14:37:38;40.20;63.60
20446;DHT22;10382;49.140;9.234;2023-08-21T14:40:06;40.20;62.50
20446;DHT22;10382;49.140;9.234;2023-08-21T14:42:35;40.10;64.00
20446;DHT22;10382;49.140;9.234;2023-08-21T14:45:02;40.20;64.60
20446;DHT22;10382;49.140;9.234;2023-08-21T14:47:31;40.40;63.20
20446;DHT22;10382;49.140;9.234;2023-08-21T14:49:58;40.40;63.00
20446;DHT22;10382;49.140;9.234;2023-08-21T14:52:24;40.50;62.40
20446;DHT22;10382;49.140;9.234;2023-08-21T14:54:52;40.50;62.50
20446;DHT22;10382;49.140;9.234;2023-08-21T14:57:19;40.60;62.70
20446;DHT22;10382;49.140;9.234;2023-08-21T14:59:46;40.80;61.30
20446;DHT22;10382;49.140;9.234;2023-08-21T15:02:13;41.10;61.00
20446;DHT22;10382;49.140;9.234;2023-08-21T15:04:41;41.30;60.20
20446;DHT22;10382;49.140;9.234;2023-08-21T15:07:08;41.70;59.30
20446;DHT22;10382;49.140;9.234;2023-08-21T15:09:35;41.90;59.00
20446;DHT22;10382;49.140;9.234;2023-08-21T15:12:03;42.20;59.00
20446;DHT22;10382;49.140;9.234;2023-08-21T15:14:30;42.70;58.70
20446;DHT22;10382;49.140;9.234;2023-08-21T15:16:56;43.40;57.60
20446;DHT22;10382;49.140;9.234;2023-08-21T15:19:23;43.70;56.90
20446;DHT22;10382;49.140;9.234;2023-08-21T15:21:51;43.90;55.80
20446;DHT22;10382;49.140;9.234;2023-08-21T15:24:18;43.40;56.30
20446;DHT22;10382;49.140;9.234;2023-08-21T15:26:45;42.70;56.90
20446;DHT22;10382;49.140;9.234;2023-08-21T15:29:12;42.20;56.80
20446;DHT22;10382;49.140;9.234;2023-08-21T15:31:39;42.10;57.90